createdAt,value
2017-06-08T00:00:08.262Z,39.8
2017-06-08T00:02:05.331Z,39.8
2017-06-08T00:04:05.184Z,39.8
2017-06-08T00:06:05.862Z,39.7
2017-06-08T00:08:05.574Z,39.7
2017-06-08T00:10:08.070Z,39.7
2017-06-08T00:12:05.765Z,39.7
2017-06-08T00:14:05.471Z,39.7
2017-06-08T00:16:05.884Z,39.7
2017-06-08T00:18:05.369Z,39.5
2017-06-08T00:20:08.079Z,39.6
2017-06-08T00:22:05.832Z,39.6
2017-06-08T00:24:05.100Z,39.6
2017-06-08T00:26:08.424Z,39.6
2017-06-08T00:28:05.693Z,39.3
2017-06-08T00:30:07.895Z,39.6
2017-06-08T00:32:10.690Z,39.3
2017-06-08T00:34:06.050Z,39.3
2017-06-08T00:36:05.815Z,39.6
2017-06-08T00:38:10.622Z,39.4
2017-06-08T00:40:07.820Z,39.6
2017-06-08T00:42:05.116Z,39.4
2017-06-08T00:44:05.797Z,39.3
2017-06-08T00:46:05.516Z,39.3
2017-06-08T00:48:05.665Z,39.4
2017-06-08T00:50:05.939Z,39.3
2017-06-08T00:52:05.828Z,39.3
2017-06-08T00:54:05.507Z,39.3
2017-06-08T00:56:05.701Z,39.3
2017-06-08T00:58:05.535Z,39.3
2017-06-08T01:00:05.290Z,39.3
2017-06-08T01:02:05.554Z,39.3
2017-06-08T01:04:13.541Z,39.3
2017-06-08T01:06:05.781Z,39.3
2017-06-08T01:08:05.620Z,39.3
2017-06-08T01:10:05.444Z,39.2
2017-06-08T01:12:05.160Z,39.3
2017-06-08T01:14:05.836Z,39.2
2017-06-08T01:16:05.596Z,39.3
2017-06-08T01:18:08.026Z,39.3
2017-06-08T01:20:05.776Z,39.3
2017-06-08T01:22:05.257Z,39.1
2017-06-08T01:24:06.068Z,39.3
2017-06-08T01:26:05.800Z,39.1
2017-06-08T01:28:05.211Z,39.2
2017-06-08T01:30:05.878Z,39.3
2017-06-08T01:32:05.141Z,39.3
2017-06-08T01:34:05.936Z,39.4
2017-06-08T01:36:07.733Z,39.2
2017-06-08T01:38:05.544Z,39.2
2017-06-08T01:40:06.153Z,39.3
2017-06-08T01:42:05.369Z,39
2017-06-08T01:44:07.600Z,39
2017-06-08T01:46:05.490Z,39
2017-06-08T01:48:05.192Z,39
2017-06-08T01:50:08.474Z,39.3
2017-06-08T01:52:10.302Z,39.1
2017-06-08T01:54:08.601Z,39.1
2017-06-08T01:56:13.101Z,39
2017-06-08T01:58:05.758Z,39.1
2017-06-08T02:00:05.520Z,39
2017-06-08T02:02:05.826Z,39.1
2017-06-08T02:04:05.689Z,39.1
2017-06-08T02:06:05.428Z,39.1
2017-06-08T02:08:05.151Z,39.1
2017-06-08T02:10:08.752Z,39.1
2017-06-08T02:12:05.505Z,39.1
2017-06-08T02:14:05.222Z,39
2017-06-08T02:16:05.792Z,39
2017-06-08T02:18:05.770Z,39
2017-06-08T02:20:05.487Z,39
2017-06-08T02:22:05.350Z,39.1
2017-06-08T02:24:10.133Z,39.1
2017-06-08T02:26:05.870Z,39.1
2017-06-08T02:28:05.620Z,39.1
2017-06-08T02:30:05.393Z,39.1
2017-06-08T02:32:05.135Z,39.1
2017-06-08T02:34:08.711Z,39.1
2017-06-08T02:36:07.969Z,39.1
2017-06-08T02:38:05.806Z,39
2017-06-08T02:40:05.610Z,39.1
2017-06-08T02:42:05.350Z,39
2017-06-08T02:44:07.753Z,39
2017-06-08T02:46:08.144Z,39
2017-06-08T02:48:05.830Z,39
2017-06-08T02:50:05.501Z,39
2017-06-08T02:52:05.252Z,39.1
2017-06-08T02:54:05.935Z,39.1
2017-06-08T02:56:05.198Z,39.1
2017-06-08T02:58:05.053Z,39.1
2017-06-08T03:00:05.762Z,39.1
2017-06-08T03:02:07.989Z,39.1
2017-06-08T03:04:08.361Z,39
2017-06-08T03:06:07.538Z,39.1
2017-06-08T03:08:05.301Z,39.1
2017-06-08T03:10:05.212Z,39.1
2017-06-08T03:12:05.938Z,39.1
2017-06-08T03:14:05.695Z,39.1
2017-06-08T03:16:05.601Z,39.1
2017-06-08T03:18:05.061Z,39.1
2017-06-08T03:20:05.779Z,39
2017-06-08T03:22:05.828Z,39.1
2017-06-08T03:24:05.483Z,39.1
2017-06-08T03:26:05.244Z,39.2
2017-06-08T03:28:08.176Z,39.1
2017-06-08T03:30:06.037Z,39.1
2017-06-08T03:32:08.420Z,39.1
2017-06-08T03:34:05.222Z,39.1
2017-06-08T03:36:05.935Z,39.1
2017-06-08T03:38:05.319Z,39.1
2017-06-08T03:40:05.115Z,39.1
2017-06-08T03:42:07.901Z,39.1
2017-06-08T03:44:08.170Z,39
2017-06-08T03:46:05.532Z,39
2017-06-08T03:48:05.367Z,39
2017-06-08T03:50:05.062Z,38.9
2017-06-08T03:52:05.934Z,38.5
2017-06-08T03:54:05.168Z,38.5
2017-06-08T03:56:08.443Z,38.2
2017-06-08T03:58:05.195Z,38.1
2017-06-08T04:00:05.961Z,38.1
2017-06-08T04:02:05.323Z,38.1
2017-06-08T04:04:05.207Z,38
2017-06-08T04:06:06.596Z,38
2017-06-08T04:08:05.944Z,37.9
2017-06-08T04:10:05.662Z,37.9
2017-06-08T04:12:08.164Z,37.6
2017-06-08T04:14:10.979Z,37.6
2017-06-08T04:16:10.644Z,37.6
2017-06-08T04:18:05.543Z,37.6
2017-06-08T04:20:08.553Z,37.5
2017-06-08T04:22:15.998Z,37.5
2017-06-08T04:24:05.138Z,37.5
2017-06-08T04:26:05.824Z,37.5
2017-06-08T04:28:08.639Z,37.5
2017-06-08T04:30:09.402Z,37.3
2017-06-08T04:32:07.666Z,37.3
2017-06-08T04:34:07.723Z,37.3
2017-06-08T04:36:06.543Z,37.2
2017-06-08T04:38:07.899Z,37.1
2017-06-08T04:40:06.030Z,37.1
2017-06-08T04:42:05.801Z,37.2
2017-06-08T04:44:08.049Z,37.2
2017-06-08T04:46:06.126Z,37.2
2017-06-08T04:48:05.818Z,36.9
2017-06-08T04:50:05.547Z,36.9
2017-06-08T04:52:08.432Z,36.9
2017-06-08T04:54:05.147Z,37.1
2017-06-08T04:56:05.857Z,36.9
2017-06-08T04:58:05.602Z,36.9
2017-06-08T05:00:07.807Z,36.9
2017-06-08T05:02:07.575Z,36.9
2017-06-08T05:04:05.837Z,36.9
2017-06-08T05:06:05.536Z,37.1
2017-06-08T05:08:07.927Z,36.9
2017-06-08T05:10:08.311Z,36.9
2017-06-08T05:12:05.064Z,36.8
2017-06-08T05:14:05.891Z,36.8
2017-06-08T05:16:08.364Z,36.8
2017-06-08T05:18:07.850Z,36.8
2017-06-08T05:20:05.540Z,36.8
2017-06-08T05:22:05.274Z,36.9
2017-06-08T05:24:06.198Z,36.9
2017-06-08T05:26:05.990Z,36.9
2017-06-08T05:28:05.856Z,36.8
2017-06-08T05:30:05.619Z,36.8
2017-06-08T05:32:05.517Z,36.8
2017-06-08T05:34:06.279Z,36.8
2017-06-08T05:36:05.112Z,36.7
2017-06-08T05:38:05.815Z,36.8
2017-06-08T05:40:06.459Z,36.8
2017-06-08T05:42:05.206Z,36.7
2017-06-08T05:44:08.441Z,36.8
2017-06-08T05:46:07.836Z,37
2017-06-08T05:48:05.658Z,36.8
2017-06-08T05:50:07.850Z,36.9
2017-06-08T05:52:05.625Z,36.9
2017-06-08T05:54:05.855Z,36.9
2017-06-08T05:56:08.365Z,36.9
2017-06-08T05:58:05.151Z,36.9
2017-06-08T06:00:08.352Z,36.9
2017-06-08T06:02:05.166Z,36.9
2017-06-08T06:04:05.618Z,36.7
2017-06-08T06:06:08.003Z,37
2017-06-08T06:08:05.222Z,37
2017-06-08T06:10:06.116Z,37
2017-06-08T06:12:05.937Z,36.8
2017-06-08T06:14:05.658Z,36.8
2017-06-08T06:16:10.563Z,36.9
2017-06-08T06:18:13.215Z,36.9
2017-06-08T06:20:05.721Z,36.9
2017-06-08T06:22:08.150Z,36.9
2017-06-08T06:24:08.390Z,36.9
2017-06-08T06:26:10.159Z,36.9
2017-06-08T06:28:06.201Z,36.9
2017-06-08T06:30:05.938Z,37
2017-06-08T06:32:06.100Z,37
2017-06-08T06:34:08.751Z,37.2
2017-06-08T06:36:08.128Z,37
2017-06-08T06:38:05.947Z,37
2017-06-08T06:40:05.839Z,37
2017-06-08T06:42:05.618Z,37
2017-06-08T06:44:11.856Z,37
2017-06-08T06:46:05.105Z,37.1
2017-06-08T06:48:05.564Z,37.1
2017-06-08T06:50:05.275Z,37.1
2017-06-08T06:52:08.691Z,37.4
2017-06-08T06:54:07.999Z,37.4
2017-06-08T06:56:05.771Z,37.4
2017-06-08T06:58:06.081Z,37.5
2017-06-08T07:00:06.449Z,37.4
2017-06-08T07:02:05.925Z,37.6
2017-06-08T07:04:07.825Z,37.7
2017-06-08T07:06:05.516Z,37.7
2017-06-08T07:08:05.192Z,37.9
2017-06-08T07:10:05.866Z,37.9
2017-06-08T07:12:05.579Z,37.8
2017-06-08T07:14:05.276Z,37.8
2017-06-08T07:16:08.483Z,37.8
2017-06-08T07:18:05.374Z,37.8
2017-06-08T07:20:05.094Z,38.1
2017-06-08T07:22:05.807Z,38
2017-06-08T07:24:05.531Z,38
2017-06-08T07:26:05.230Z,38
2017-06-08T07:28:07.670Z,38
2017-06-08T07:30:05.346Z,37.9
2017-06-08T07:32:05.243Z,38.1
2017-06-08T07:34:06.035Z,38.2
2017-06-08T07:36:05.701Z,38.1
2017-06-08T07:38:06.612Z,38.1
2017-06-08T07:40:05.585Z,38.2
2017-06-08T07:42:08.041Z,38.1
2017-06-08T07:44:08.355Z,38.3
2017-06-08T07:46:10.351Z,38.1
2017-06-08T07:48:08.367Z,38.4
2017-06-08T07:50:05.087Z,38.3
2017-06-08T07:52:05.970Z,38.3
2017-06-08T07:54:05.690Z,38.3
2017-06-08T07:56:05.582Z,38.3
2017-06-08T07:58:08.283Z,38.4
2017-06-08T08:00:06.004Z,38.4
2017-06-08T08:02:05.201Z,38.3
2017-06-08T08:04:06.025Z,38.4
2017-06-08T08:06:05.766Z,38.4
2017-06-08T08:08:05.501Z,38.6
2017-06-08T08:10:05.421Z,38.6
2017-06-08T08:12:07.636Z,38.6
2017-06-08T08:14:05.339Z,38.6
2017-06-08T08:16:05.244Z,38.6
2017-06-08T08:18:07.692Z,38.7
2017-06-08T08:20:08.135Z,38.9
2017-06-08T08:22:05.456Z,38.9
2017-06-08T08:24:07.767Z,39.3
2017-06-08T08:26:05.471Z,39.1
2017-06-08T08:28:05.333Z,39.3
2017-06-08T08:30:05.053Z,39.3
2017-06-08T08:32:05.722Z,39.5
2017-06-08T08:34:05.585Z,39.4
2017-06-08T08:36:05.458Z,39.7
2017-06-08T08:38:05.185Z,39.7
2017-06-08T08:40:06.031Z,39.8
2017-06-08T08:42:07.764Z,40.1
2017-06-08T08:44:08.517Z,40.3
2017-06-08T08:46:05.313Z,40.3
2017-06-08T08:48:05.011Z,40.2
2017-06-08T08:50:05.679Z,40.2
2017-06-08T08:52:05.990Z,40.1
2017-06-08T08:54:05.688Z,40.3
2017-06-08T08:56:05.670Z,40.2
2017-06-08T08:58:05.545Z,40.5
2017-06-08T09:00:05.464Z,40.5
2017-06-08T09:02:10.225Z,40.4
2017-06-08T09:04:08.086Z,40.6
2017-06-08T09:06:05.828Z,40.5
2017-06-08T09:08:05.609Z,40.6
2017-06-08T09:10:05.456Z,40.6
2017-06-08T09:12:07.750Z,40.6
2017-06-08T09:14:05.988Z,40.4
2017-06-08T09:16:05.736Z,40.4
2017-06-08T09:18:05.703Z,40.4
2017-06-08T09:20:05.887Z,40.4
2017-06-08T09:22:08.276Z,40.3
2017-06-08T09:24:05.652Z,40.1
2017-06-08T09:26:08.425Z,40.1
2017-06-08T09:28:10.212Z,40
2017-06-08T09:30:05.879Z,39.9
2017-06-08T09:32:05.608Z,40.3
2017-06-08T09:34:05.979Z,40.2
2017-06-08T09:36:05.768Z,40.2
2017-06-08T09:38:10.590Z,40.2
2017-06-08T09:40:08.023Z,39.9
2017-06-08T09:42:05.752Z,40.2
2017-06-08T09:44:05.557Z,40
2017-06-08T09:46:05.315Z,40
2017-06-08T09:48:05.542Z,40.2
2017-06-08T09:50:05.401Z,40.1
2017-06-08T09:52:05.223Z,39.9
2017-06-08T09:54:08.448Z,40.3
2017-06-08T09:56:05.310Z,40
2017-06-08T09:58:05.176Z,40
2017-06-08T10:00:15.967Z,40.1
2017-06-08T10:02:08.272Z,40.1
2017-06-08T10:04:11.396Z,40.2
2017-06-08T10:06:07.670Z,40.1
2017-06-08T10:08:05.957Z,40.1
2017-06-08T10:10:05.844Z,40.1
2017-06-08T10:12:05.962Z,40.2
2017-06-08T10:14:05.739Z,40.1
2017-06-08T10:16:05.537Z,40.1
2017-06-08T10:18:05.509Z,40.3
2017-06-08T10:20:05.268Z,40.1
2017-06-08T10:22:06.116Z,40.1
2017-06-08T10:24:05.331Z,40.1
2017-06-08T10:26:10.120Z,40.6
2017-06-08T10:28:20.842Z,40.6
2017-06-08T10:30:05.781Z,40.8
2017-06-08T10:32:10.117Z,41
2017-06-08T10:34:05.483Z,40.7
2017-06-08T10:36:05.413Z,40.6
2017-06-08T10:38:05.412Z,40.7
2017-06-08T10:40:05.652Z,40.7
2017-06-08T10:42:05.399Z,41.1
2017-06-08T10:44:07.666Z,41
2017-06-08T10:46:08.116Z,41.1
2017-06-08T10:48:05.813Z,41.1
2017-06-08T10:50:08.099Z,41.5
2017-06-08T10:52:05.951Z,41.5
2017-06-08T10:54:05.683Z,41.8
2017-06-08T10:56:05.974Z,41.7
2017-06-08T10:58:10.665Z,41.9
2017-06-08T11:00:07.990Z,42.2
2017-06-08T11:02:08.265Z,42.4
2017-06-08T11:04:08.134Z,42.4
2017-06-08T11:06:05.344Z,42.4
2017-06-08T11:08:07.667Z,42.8
2017-06-08T11:10:10.580Z,42.6
2017-06-08T11:12:07.852Z,42.6
2017-06-08T11:14:05.739Z,42.6
2017-06-08T11:16:08.368Z,42.8
2017-06-08T11:18:05.299Z,42.8
2017-06-08T11:20:05.976Z,42.8
2017-06-08T11:22:05.716Z,42.8
2017-06-08T11:24:05.519Z,42.6
2017-06-08T11:26:05.312Z,42.6
2017-06-08T11:28:06.168Z,42.6
2017-06-08T11:30:05.881Z,42.8
2017-06-08T11:32:06.021Z,42.6
2017-06-08T11:34:05.365Z,42.9
2017-06-08T11:36:10.120Z,42.7
2017-06-08T11:38:05.790Z,42.7
2017-06-08T11:40:05.848Z,42.3
2017-06-08T11:42:05.546Z,42.1
2017-06-08T11:44:05.258Z,42.4
2017-06-08T11:46:08.631Z,42.3
2017-06-08T11:48:06.011Z,42.3
2017-06-08T11:50:06.040Z,42.3
2017-06-08T11:52:05.913Z,42.3
2017-06-08T11:54:08.323Z,42.3
2017-06-08T11:56:05.961Z,42.3
2017-06-08T11:58:06.039Z,42.3
2017-06-08T12:00:05.257Z,42.3
2017-06-08T12:02:08.496Z,42.1
2017-06-08T12:04:05.607Z,42.1
2017-06-08T12:06:10.484Z,42.2
2017-06-08T12:08:05.727Z,42.2
2017-06-08T12:10:06.762Z,42.1
2017-06-08T12:12:13.320Z,42.2
2017-06-08T12:14:07.507Z,42.2
2017-06-08T12:16:07.841Z,42.3
2017-06-08T12:18:05.936Z,42.3
2017-06-08T12:20:06.781Z,42.3
2017-06-08T12:22:05.627Z,42.4
2017-06-08T12:24:05.587Z,42.4
2017-06-08T12:26:05.832Z,42.4
2017-06-08T12:28:10.765Z,42.9
2017-06-08T12:30:05.456Z,42.8
2017-06-08T12:32:08.184Z,42.9
2017-06-08T12:34:06.254Z,42.8
2017-06-08T12:36:11.163Z,43.1
2017-06-08T12:38:11.570Z,43
2017-06-08T12:40:05.460Z,43
2017-06-08T12:42:05.163Z,43
2017-06-08T12:44:05.888Z,43
2017-06-08T12:46:05.797Z,42.9
2017-06-08T12:48:07.373Z,42.5
2017-06-08T12:50:10.810Z,43.1
2017-06-08T12:52:05.686Z,43.1
2017-06-08T12:54:10.539Z,43.5
2017-06-08T12:56:05.253Z,43.4
2017-06-08T12:58:05.414Z,43
2017-06-08T13:00:05.109Z,43.2
2017-06-08T13:02:05.025Z,43.4
2017-06-08T13:04:05.421Z,43.6
2017-06-08T13:06:05.794Z,43.4
2017-06-08T13:08:05.397Z,43.6
2017-06-08T13:10:05.081Z,43.6
2017-06-08T13:12:08.298Z,43.6
2017-06-08T13:14:08.557Z,43.4
2017-06-08T13:16:13.410Z,43.1
2017-06-08T13:18:05.291Z,43.1
2017-06-08T13:20:11.042Z,43.3
2017-06-08T13:22:05.509Z,43.2
2017-06-08T13:24:05.274Z,43.4
2017-06-08T13:26:08.522Z,43
2017-06-08T13:28:05.929Z,43
2017-06-08T13:30:05.727Z,43.1
2017-06-08T13:32:05.053Z,43.1
2017-06-08T13:34:05.741Z,43.2
2017-06-08T13:36:07.938Z,43.2
2017-06-08T13:38:05.172Z,43.3
2017-06-08T13:40:05.613Z,43.3
2017-06-08T13:42:06.387Z,43.2
2017-06-08T13:44:05.129Z,43.5
2017-06-08T13:46:08.647Z,43.6
2017-06-08T13:48:05.404Z,43.6
2017-06-08T13:50:05.098Z,43.1
2017-06-08T13:52:06.107Z,43.4
2017-06-08T13:54:05.804Z,43.6
2017-06-08T13:56:13.149Z,43.2
2017-06-08T13:58:11.092Z,43
2017-06-08T14:00:05.845Z,43
2017-06-08T14:02:08.060Z,43.2
2017-06-08T14:04:05.914Z,43.2
2017-06-08T14:06:05.655Z,43.6
2017-06-08T14:08:05.905Z,43.6
2017-06-08T14:10:05.671Z,43.8
2017-06-08T14:12:05.738Z,43.8
2017-06-08T14:14:05.427Z,43.6
2017-06-08T14:16:05.856Z,43.5
2017-06-08T14:18:05.804Z,43.3
2017-06-08T14:20:08.093Z,43.6
2017-06-08T14:22:05.959Z,43.6
2017-06-08T14:24:05.875Z,43.8
2017-06-08T14:26:08.185Z,44.1
2017-06-08T14:28:06.085Z,44.1
2017-06-08T14:30:05.765Z,44.1
2017-06-08T14:32:10.564Z,44.8
2017-06-08T14:34:07.939Z,44.5
2017-06-08T14:36:05.943Z,44.8
2017-06-08T14:38:05.638Z,44.3
2017-06-08T14:40:08.014Z,44.3
2017-06-08T14:42:05.644Z,44.3
2017-06-08T14:44:05.741Z,44.7
2017-06-08T14:46:05.634Z,45.5
2017-06-08T14:48:05.380Z,44.6
2017-06-08T14:50:05.639Z,45.6
2017-06-08T14:52:05.523Z,45.8
2017-06-08T14:54:07.846Z,45.8
2017-06-08T14:56:05.581Z,45.9
2017-06-08T14:58:12.859Z,46.2
2017-06-08T15:00:05.481Z,46.2
2017-06-08T15:02:05.205Z,46.4
2017-06-08T15:04:06.149Z,45.5
2017-06-08T15:06:05.889Z,45.5
2017-06-08T15:08:06.064Z,45.4
2017-06-08T15:10:07.821Z,45.6
2017-06-08T15:12:08.079Z,45.3
2017-06-08T15:14:05.516Z,45.3
2017-06-08T15:16:05.821Z,44.8
2017-06-08T15:18:05.244Z,44.7
2017-06-08T15:20:06.013Z,44.8
2017-06-08T15:22:05.872Z,44.5
2017-06-08T15:24:05.634Z,44.5
2017-06-08T15:26:05.378Z,44.5
2017-06-08T15:28:05.644Z,44.5
2017-06-08T15:30:09.056Z,44.5
2017-06-08T15:32:11.236Z,44.5
2017-06-08T15:34:05.887Z,44.5
2017-06-08T15:36:05.717Z,44.5
2017-06-08T15:38:05.475Z,44.5
2017-06-08T15:40:05.311Z,44.8
2017-06-08T15:42:11.039Z,44.5
2017-06-08T15:44:10.780Z,44.5
2017-06-08T15:46:08.242Z,44.5
2017-06-08T15:48:07.288Z,44.5
2017-06-08T15:50:06.086Z,44.5
2017-06-08T15:52:05.403Z,44.5
2017-06-08T15:54:07.795Z,44.5
2017-06-08T15:56:05.017Z,44.5
2017-06-08T15:58:08.366Z,44.5
2017-06-08T16:00:05.251Z,44.5
2017-06-08T16:02:09.413Z,44.3
2017-06-08T16:04:05.850Z,44.3
2017-06-08T16:06:08.504Z,44.3
2017-06-08T16:08:07.770Z,44.3
2017-06-08T16:10:06.033Z,44.3
2017-06-08T16:12:05.246Z,44.3
2017-06-08T16:14:11.007Z,44.3
2017-06-08T16:16:08.595Z,44.3
2017-06-08T16:18:05.796Z,44.3
2017-06-08T16:20:08.167Z,44.3
2017-06-08T16:22:12.129Z,44.3
2017-06-08T16:24:06.662Z,44.3
2017-06-08T16:26:07.896Z,44.3
2017-06-08T16:28:06.047Z,44.3
2017-06-08T16:30:05.761Z,44.3
2017-06-08T16:32:06.088Z,44.3
2017-06-08T16:34:11.892Z,44.3
2017-06-08T16:36:05.965Z,44.3
2017-06-08T16:38:05.636Z,44.3
2017-06-08T16:40:05.596Z,44.3
2017-06-08T16:42:05.531Z,44.3
2017-06-08T16:44:07.817Z,44.3
2017-06-08T16:46:09.558Z,44.3
2017-06-08T16:48:05.728Z,44.3
2017-06-08T16:50:10.930Z,44.3
2017-06-08T16:52:05.730Z,44.3
2017-06-08T16:54:05.458Z,44.3
2017-06-08T16:56:05.159Z,44.3
2017-06-08T16:58:06.201Z,44.1
2017-06-08T17:00:05.366Z,44.1
2017-06-08T17:02:08.993Z,44.3
2017-06-08T17:04:07.093Z,44.1
2017-06-08T17:06:06.768Z,44.1
2017-06-08T17:08:07.079Z,44.3
2017-06-08T17:10:10.833Z,44.1
2017-06-08T17:12:13.367Z,44.3
2017-06-08T17:14:05.346Z,44.3
2017-06-08T17:16:05.616Z,44.3
2017-06-08T17:18:10.150Z,44.3
2017-06-08T17:20:07.107Z,44.3
2017-06-08T17:22:08.208Z,44.3
2017-06-08T17:24:06.323Z,44.3
2017-06-08T17:26:13.443Z,44.3
2017-06-08T17:28:07.590Z,44.3
2017-06-08T17:30:05.171Z,44.3
2017-06-08T17:32:06.761Z,44.3
2017-06-08T17:34:05.670Z,44.3
2017-06-08T17:36:05.380Z,44.3
2017-06-08T17:38:05.426Z,44.3
2017-06-08T17:42:05.419Z,44.3
2017-06-08T17:44:05.341Z,44.3
2017-06-08T17:46:05.797Z,44.3
2017-06-08T17:48:08.065Z,44.3
2017-06-08T17:50:07.765Z,44.3
2017-06-08T17:52:12.697Z,44.3
2017-06-08T17:54:36.902Z,44.3
2017-06-08T17:56:51.518Z,44.3
2017-06-08T17:58:05.365Z,44.3
2017-06-08T18:00:28.501Z,44.3
2017-06-08T18:02:05.133Z,44.3
2017-06-08T18:04:05.876Z,44.3
2017-06-08T18:06:10.955Z,44.3
2017-06-08T18:08:06.147Z,44.3
2017-06-08T18:10:11.237Z,44.3
2017-06-08T18:12:06.087Z,44.3
2017-06-08T18:14:06.463Z,44.3
2017-06-08T18:16:05.652Z,44.3
2017-06-08T18:18:06.225Z,44.3
2017-06-08T18:20:05.923Z,44.3
2017-06-08T18:22:08.297Z,44.3
2017-06-08T18:24:22.789Z,44.3
2017-06-08T18:26:06.465Z,44.3
2017-06-08T18:28:06.244Z,44.3
2017-06-08T18:30:07.093Z,44.3
2017-06-08T18:32:05.782Z,44.3
2017-06-08T18:34:08.631Z,44.3
2017-06-08T18:36:05.605Z,44.1
2017-06-08T18:38:06.627Z,44.1
2017-06-08T18:40:08.024Z,44.1
2017-06-08T18:42:09.090Z,44.1
2017-06-08T18:44:05.670Z,44.3
2017-06-08T18:46:10.698Z,44.1
2017-06-08T18:48:08.468Z,44.1
2017-06-08T18:50:06.843Z,44.1
2017-06-08T18:52:10.609Z,44.3
2017-06-08T18:54:18.948Z,44.1
2017-06-08T18:56:11.212Z,44.1
2017-06-08T18:58:08.262Z,44.1
2017-06-08T19:00:06.761Z,44.1
2017-06-08T19:02:08.941Z,44.1
2017-06-08T19:04:16.529Z,44.1
2017-06-08T19:06:05.134Z,44.1
2017-06-08T19:08:05.590Z,44.1
2017-06-08T19:10:05.542Z,44.1
2017-06-08T19:12:05.253Z,44.1
2017-06-08T19:14:08.946Z,44.6
2017-06-08T19:16:10.909Z,44.1
2017-06-08T19:18:05.877Z,44.1
2017-06-08T19:20:05.804Z,44.1
2017-06-08T19:22:06.725Z,43.8
2017-06-08T19:24:06.219Z,43.8
2017-06-08T19:26:06.804Z,43.9
2017-06-08T19:28:05.705Z,43.8
2017-06-08T19:30:05.789Z,43.9
2017-06-08T19:32:05.561Z,43.8
2017-06-08T19:34:05.803Z,43.8
2017-06-08T19:36:05.543Z,43.8
2017-06-08T19:38:06.997Z,43.8
2017-06-08T19:40:13.317Z,43.8
2017-06-08T19:42:06.040Z,43.8
2017-06-08T19:44:11.428Z,43.6
2017-06-08T19:46:06.153Z,43.6
2017-06-08T19:48:10.075Z,43.8
2017-06-08T19:50:07.160Z,43.8
2017-06-08T19:52:05.093Z,43.6
2017-06-08T19:54:05.817Z,43.8
2017-06-08T19:56:08.339Z,43.6
2017-06-08T19:58:05.170Z,43.6
2017-06-08T20:00:05.067Z,43.6
2017-06-08T20:02:05.799Z,43.6
2017-06-08T20:04:11.150Z,43.6
2017-06-08T20:06:08.288Z,43.8
2017-06-08T20:08:05.959Z,43.6
2017-06-08T20:10:05.741Z,43.6
2017-06-08T20:12:08.061Z,43.7
2017-06-08T20:14:05.783Z,43.8
2017-06-08T20:16:06.279Z,43.6
2017-06-08T20:18:05.258Z,43.5
2017-06-08T20:20:06.245Z,43.7
2017-06-08T20:22:06.008Z,43.6
2017-06-08T20:24:06.122Z,43.6
2017-06-08T20:26:05.825Z,43.8
2017-06-08T20:28:07.740Z,43.6
2017-06-08T20:30:05.499Z,43.6
2017-06-08T20:32:06.423Z,43.6
2017-06-08T20:34:05.856Z,43.6
2017-06-08T20:36:08.243Z,43.6
2017-06-08T20:38:08.469Z,43.6
2017-06-08T20:40:08.087Z,43.4
2017-06-08T20:42:05.816Z,43.4
2017-06-08T20:44:05.132Z,43.6
2017-06-08T20:46:10.893Z,43.6
2017-06-08T20:48:05.640Z,43.4
2017-06-08T20:50:10.424Z,43.6
2017-06-08T20:52:10.351Z,43.6
2017-06-08T20:54:05.247Z,43.6
2017-06-08T20:56:05.990Z,43.8
2017-06-08T20:58:05.859Z,43.8
2017-06-08T21:00:05.641Z,43.6
2017-06-08T21:02:05.605Z,43.6
2017-06-08T21:04:05.803Z,43.6
2017-06-08T21:06:10.555Z,43.6
2017-06-08T21:08:05.253Z,43.4
2017-06-08T21:10:06.164Z,43.4
2017-06-08T21:12:05.830Z,43.6
2017-06-08T21:14:05.591Z,43.9
2017-06-08T21:16:05.452Z,43.8
2017-06-08T21:18:05.347Z,43.8
2017-06-08T21:20:05.071Z,43.6
2017-06-08T21:22:05.524Z,44
2017-06-08T21:24:05.594Z,43.5
2017-06-08T21:26:05.264Z,44
2017-06-08T21:28:08.597Z,43.8
2017-06-08T21:30:05.566Z,43.8
2017-06-08T21:32:05.276Z,43.8
2017-06-08T21:34:08.672Z,43.5
2017-06-08T21:36:05.466Z,43.5
2017-06-08T21:38:05.298Z,44
2017-06-08T21:40:05.160Z,44.3
2017-06-08T21:42:05.842Z,44.1
2017-06-08T21:44:05.632Z,44.2
2017-06-08T21:46:05.472Z,44.4
2017-06-08T21:48:07.703Z,44.2
2017-06-08T21:50:05.925Z,44.4
2017-06-08T21:52:05.157Z,44.1
2017-06-08T21:54:05.813Z,44.1
2017-06-08T21:56:05.577Z,44.2
2017-06-08T21:58:05.435Z,44.2
2017-06-08T22:00:05.121Z,44.2
2017-06-08T22:02:13.415Z,44.1
2017-06-08T22:04:10.565Z,44.1
2017-06-08T22:06:12.821Z,44.3
2017-06-08T22:08:05.096Z,44.3
2017-06-08T22:10:05.961Z,44.4
2017-06-08T22:12:10.944Z,44.4
2017-06-08T22:14:05.660Z,44.4
2017-06-08T22:16:08.202Z,44.2
2017-06-08T22:18:05.092Z,44.2
2017-06-08T22:20:16.269Z,44.3
2017-06-08T22:22:06.412Z,44.3
2017-06-08T22:24:05.617Z,44.4
2017-06-08T22:26:05.915Z,44.3
2017-06-08T22:28:05.786Z,44.2
2017-06-08T22:30:08.031Z,44.3
2017-06-08T22:32:05.765Z,44.3
2017-06-08T22:34:08.086Z,44.4
2017-06-08T22:36:05.802Z,44.4
2017-06-08T22:38:08.194Z,44.3
2017-06-08T22:40:08.826Z,44
2017-06-08T22:42:05.544Z,44
2017-06-08T22:44:10.480Z,44.1
2017-06-08T22:46:07.948Z,44
2017-06-08T22:48:05.282Z,44
2017-06-08T22:50:05.049Z,44.2
2017-06-08T22:52:05.864Z,44.1
2017-06-08T22:54:05.744Z,44
2017-06-08T22:56:05.515Z,43.9
2017-06-08T22:58:07.811Z,43.8
2017-06-08T23:00:05.538Z,43.8
2017-06-08T23:02:05.236Z,44
2017-06-08T23:04:05.976Z,43.9
2017-06-08T23:06:05.258Z,44
2017-06-08T23:08:05.575Z,44.2
2017-06-08T23:10:05.961Z,44.1
2017-06-08T23:12:05.712Z,44.1
2017-06-08T23:14:05.540Z,44
2017-06-08T23:16:05.405Z,43.9
2017-06-08T23:18:12.998Z,43.8
2017-06-08T23:20:10.964Z,43.9
2017-06-08T23:22:05.715Z,43.8
2017-06-08T23:24:05.461Z,43.7
2017-06-08T23:26:12.829Z,43.6
2017-06-08T23:28:12.846Z,43.6
2017-06-08T23:30:05.774Z,43.6
2017-06-08T23:32:06.890Z,43.4
2017-06-08T23:34:05.821Z,43.3
2017-06-08T23:36:05.061Z,43.4
2017-06-08T23:38:05.787Z,43.5
2017-06-08T23:40:05.808Z,43.3
2017-06-08T23:42:07.986Z,43.2
2017-06-08T23:44:05.684Z,43.2
2017-06-08T23:46:08.144Z,43.4
2017-06-08T23:48:05.510Z,43.1
2017-06-08T23:50:05.327Z,43.1
2017-06-08T23:52:11.006Z,43.1
2017-06-08T23:54:10.771Z,43.1
2017-06-08T23:56:05.492Z,43.1
2017-06-08T23:58:05.603Z,42.9
